createdAt,value
2019-04-16T15:04:57.818Z,997.37
2019-04-16T15:05:55.514Z,997.26
2019-04-16T15:06:55.502Z,997.32
2019-04-16T15:07:55.486Z,997.28
2019-04-16T15:08:55.523Z,997.34
2019-04-16T15:09:55.507Z,997.26
2019-04-16T15:10:55.474Z,997.33
2019-04-16T15:11:58.302Z,997.28
2019-04-16T15:12:56.708Z,997.26
2019-04-16T15:13:55.437Z,997.35
2019-04-16T15:14:55.471Z,997.33
2019-04-16T15:16:07.251Z,997.32
2019-04-16T15:16:56.405Z,997.27
2019-04-16T15:17:55.393Z,997.25
2019-04-16T15:18:55.379Z,997.32
2019-04-16T15:19:55.370Z,997.19
2019-04-16T15:20:55.364Z,997.15
2019-04-16T15:21:55.350Z,997.16
2019-04-16T15:22:55.337Z,997.21
2019-04-16T15:23:55.333Z,997.22
2019-04-16T15:24:55.325Z,997.25
2019-04-16T15:25:55.314Z,997.14
2019-04-16T15:26:55.578Z,997.18
2019-04-16T15:27:55.895Z,997.15
2019-04-16T15:28:55.279Z,997.16
2019-04-16T15:29:56.644Z,997.18
2019-04-16T15:31:00.845Z,997.24
2019-04-16T15:31:56.246Z,997.13
2019-04-16T15:32:55.245Z,997.15
2019-04-16T15:33:55.482Z,997.12
2019-04-16T15:34:55.217Z,997.13
2019-04-16T15:35:55.223Z,997.19
2019-04-16T15:36:55.279Z,997.22
2019-04-16T15:37:57.909Z,997.26
2019-04-16T15:38:55.551Z,997.25
2019-04-16T15:39:59.137Z,997.27
2019-04-16T15:40:55.171Z,997.25
2019-04-16T15:41:55.154Z,997.32
2019-04-16T15:42:55.178Z,997.34
2019-04-16T15:43:55.307Z,997.26
2019-04-16T15:44:56.141Z,997.26
2019-04-16T15:45:55.107Z,997.32
2019-04-16T15:46:55.125Z,997.22
2019-04-16T15:47:55.105Z,997.31
2019-04-16T15:48:55.326Z,997.24
2019-04-16T15:49:55.940Z,997.32
2019-04-16T15:50:55.057Z,997.20
2019-04-16T15:51:55.053Z,997.27
2019-04-16T15:52:55.046Z,997.26
2019-04-16T15:53:55.362Z,997.23
2019-04-16T15:54:55.337Z,997.24
2019-04-16T15:55:55.310Z,997.20
2019-04-16T15:56:55.001Z,997.14
2019-04-16T15:57:55.114Z,997.12
2019-04-16T15:58:54.974Z,997.21
2019-04-16T15:59:55.439Z,997.10
2019-04-16T16:00:55.012Z,997.14
2019-04-16T16:01:54.952Z,997.24
2019-04-16T16:02:55.125Z,997.20
2019-04-16T16:03:55.064Z,997.17
2019-04-16T16:04:55.003Z,997.24
2019-04-16T16:05:55.154Z,997.11
2019-04-16T16:06:55.060Z,997.27
2019-04-16T16:07:56.540Z,997.19
2019-04-16T16:08:54.869Z,997.17
2019-04-16T16:09:58.287Z,997.19
2019-04-16T16:10:54.852Z,997.21
2019-04-16T16:11:54.863Z,997.31
2019-04-16T16:12:54.860Z,997.31
2019-04-16T16:13:56.687Z,997.30
2019-04-16T16:14:55.800Z,997.30
2019-04-16T16:15:54.798Z,997.23
2019-04-16T16:16:54.782Z,997.32
2019-04-16T16:17:54.788Z,997.38
2019-04-16T16:18:54.760Z,997.32
2019-04-16T16:19:54.744Z,997.39
2019-04-16T16:20:55.317Z,997.45
2019-04-16T16:21:54.727Z,997.37
2019-04-16T16:22:58.318Z,997.42
2019-04-16T16:23:54.705Z,997.46
2019-04-16T16:24:54.694Z,997.46
2019-04-16T16:25:54.677Z,997.48
2019-04-16T16:26:54.702Z,997.48
2019-04-16T16:27:54.666Z,997.48
2019-04-16T16:28:54.656Z,997.58
2019-04-16T16:29:54.665Z,997.59
2019-04-16T16:30:54.630Z,997.56
2019-04-16T16:31:54.715Z,997.58
2019-04-16T16:32:54.697Z,997.63
2019-04-16T16:33:54.595Z,997.68
2019-04-16T16:34:54.616Z,997.65
2019-04-16T16:35:58.587Z,997.66
2019-04-16T16:36:55.569Z,997.71
2019-04-16T16:37:54.562Z,997.64
2019-04-16T16:38:54.569Z,997.70
2019-04-16T16:39:54.791Z,997.66
2019-04-16T16:40:54.513Z,997.70
2019-04-16T16:41:54.807Z,997.74
2019-04-16T16:42:54.515Z,997.74
2019-04-16T16:43:54.488Z,997.70
2019-04-16T16:44:54.639Z,997.75
2019-04-16T16:45:54.469Z,997.76
2019-04-16T16:46:57.427Z,997.81
2019-04-16T16:47:54.454Z,997.79
2019-04-16T16:48:54.468Z,997.77
2019-04-16T16:49:54.449Z,997.73
2019-04-16T16:50:54.413Z,997.87
2019-04-16T16:51:54.404Z,997.84
2019-04-16T16:52:54.491Z,997.78
2019-04-16T16:53:54.519Z,997.81
2019-04-16T16:54:54.369Z,997.88
2019-04-16T16:55:54.692Z,997.87
2019-04-16T16:56:54.354Z,997.89
2019-04-16T16:57:54.348Z,997.87
2019-04-16T16:58:54.515Z,997.88
2019-04-16T16:59:54.401Z,997.88
2019-04-16T17:00:56.385Z,997.89
2019-04-16T17:01:55.476Z,997.93
2019-04-16T17:02:54.284Z,997.94
2019-04-16T17:03:54.269Z,997.88
2019-04-16T17:04:54.421Z,997.86
2019-04-16T17:05:54.255Z,997.81
2019-04-16T17:06:54.239Z,997.85
2019-04-16T17:07:55.125Z,997.79
2019-04-16T17:08:54.211Z,997.88
2019-04-16T17:09:54.345Z,997.85
2019-04-16T17:10:54.200Z,997.78
2019-04-16T17:11:56.488Z,997.88
2019-04-16T17:12:54.178Z,997.89
2019-04-16T17:13:54.721Z,997.92
2019-04-16T17:14:54.146Z,997.80
2019-04-16T17:15:54.137Z,997.84
2019-04-16T17:16:54.127Z,997.87
2019-04-16T17:17:54.142Z,997.84
2019-04-16T17:18:54.403Z,997.85
2019-04-16T17:19:54.096Z,997.92
2019-04-16T17:20:54.110Z,997.94
2019-04-16T17:21:54.230Z,997.93
2019-04-16T17:22:54.070Z,997.96
2019-04-16T17:23:54.054Z,997.99
2019-04-16T17:24:54.562Z,998.05
2019-04-16T17:25:57.250Z,998.06
2019-04-16T17:26:54.029Z,998.11
2019-04-16T17:27:54.614Z,998.07
2019-04-16T17:28:53.994Z,998.03
2019-04-16T17:29:53.985Z,998.13
2019-04-16T17:30:53.978Z,998.10
2019-04-16T17:31:53.966Z,998.10
2019-04-16T17:32:53.957Z,998.11
2019-04-16T17:33:53.989Z,998.14
2019-04-16T17:34:53.932Z,998.08
2019-04-16T17:35:54.184Z,998.10
2019-04-16T17:36:53.914Z,998.07
2019-04-16T17:37:53.897Z,998.18
2019-04-16T17:38:53.917Z,998.20
2019-04-16T17:39:54.499Z,998.11
2019-04-16T17:40:58.089Z,998.16
2019-04-16T17:41:58.377Z,998.09
2019-04-16T17:42:55.218Z,998.06
2019-04-16T17:44:02.049Z,998.15
2019-04-16T17:44:55.093Z,998.15
2019-04-16T17:45:53.813Z,998.08
2019-04-16T17:46:53.798Z,998.15
2019-04-16T17:47:56.490Z,998.20
2019-04-16T17:48:53.783Z,998.22
2019-04-16T17:49:53.768Z,998.14
2019-04-16T17:50:53.756Z,998.25
2019-04-16T17:51:53.742Z,998.25
2019-04-16T17:52:53.741Z,998.22
2019-04-16T17:53:53.725Z,998.29
2019-04-16T17:54:53.713Z,998.30
2019-04-16T17:55:53.708Z,998.29
2019-04-16T17:56:55.540Z,998.30
2019-04-16T17:57:53.685Z,998.26
2019-04-16T17:58:53.701Z,998.28
2019-04-16T17:59:53.659Z,998.28
2019-04-16T18:00:53.647Z,998.27
2019-04-16T18:01:53.635Z,998.36
2019-04-16T18:02:53.626Z,998.36
2019-04-16T18:03:53.615Z,998.37
2019-04-16T18:04:53.610Z,998.43
2019-04-16T18:05:53.606Z,998.36
2019-04-16T18:06:53.582Z,998.36
2019-04-16T18:07:53.573Z,998.37
2019-04-16T18:08:53.559Z,998.45
2019-04-16T18:09:53.545Z,998.45
2019-04-16T18:10:53.552Z,998.45
2019-04-16T18:11:53.601Z,998.48
2019-04-16T18:12:55.113Z,998.45
2019-04-16T18:13:53.503Z,998.46
2019-04-16T18:14:53.853Z,998.57
2019-04-16T18:15:53.549Z,998.62
2019-04-16T18:16:55.270Z,998.62
2019-04-16T18:17:53.512Z,998.58
2019-04-16T18:18:53.447Z,998.65
2019-04-16T18:19:53.435Z,998.61
2019-04-16T18:20:58.591Z,998.65
2019-04-16T18:21:54.407Z,998.66
2019-04-16T18:22:53.408Z,998.66
2019-04-16T18:23:53.399Z,998.69
2019-04-16T18:24:53.617Z,998.69
2019-04-16T18:25:56.731Z,998.76
2019-04-16T18:26:53.362Z,998.67
2019-04-16T18:27:53.372Z,998.75
2019-04-16T18:28:53.627Z,998.75
2019-04-16T18:29:53.353Z,998.70
2019-04-16T18:30:53.545Z,998.78
2019-04-16T18:31:56.329Z,998.77
2019-04-16T18:32:53.297Z,998.84
2019-04-16T18:33:53.664Z,998.83
2019-04-16T18:34:53.381Z,998.86
2019-04-16T18:35:53.268Z,998.87
2019-04-16T18:36:53.274Z,998.91
2019-04-16T18:37:53.244Z,998.92
2019-04-16T18:38:56.131Z,998.88
2019-04-16T18:39:54.338Z,998.91
2019-04-16T18:40:53.566Z,998.93
2019-04-16T18:41:53.386Z,998.94
2019-04-16T18:42:53.183Z,998.93
2019-04-16T18:43:53.181Z,998.93
2019-04-16T18:44:55.017Z,998.96
2019-04-16T18:45:55.870Z,999.01
2019-04-16T18:46:53.146Z,998.97
2019-04-16T18:48:02.758Z,998.94
2019-04-16T18:48:55.058Z,998.98
2019-04-16T18:49:53.127Z,998.97
2019-04-16T18:50:53.102Z,998.96
2019-04-16T18:51:53.114Z,999.05
2019-04-16T18:52:53.563Z,999.01
2019-04-16T18:53:53.321Z,998.98
2019-04-16T18:54:53.047Z,999.01
2019-04-16T18:55:53.040Z,999.03
2019-04-16T18:56:53.049Z,999.07
2019-04-16T18:57:53.039Z,999.03
2019-04-16T18:58:53.008Z,999.00
2019-04-16T18:59:53.003Z,998.96
2019-04-16T19:00:52.990Z,998.97
2019-04-16T19:01:52.980Z,999.01
2019-04-16T19:02:53.298Z,999.02
2019-04-16T19:03:52.960Z,999.06
2019-04-16T19:04:52.956Z,999.03
2019-04-16T19:05:52.935Z,999.06
2019-04-16T19:06:52.938Z,999.11
2019-04-16T19:07:55.978Z,999.08
2019-04-16T19:08:53.904Z,999.07
2019-04-16T19:09:52.892Z,999.07
2019-04-16T19:10:52.904Z,999.05
2019-04-16T19:11:52.869Z,999.08
2019-04-16T19:12:52.872Z,999.12
2019-04-16T19:13:53.593Z,999.08
2019-04-16T19:14:52.835Z,999.09
2019-04-16T19:15:52.831Z,999.08
2019-04-16T19:16:52.811Z,999.13
2019-04-16T19:17:52.804Z,999.10
2019-04-16T19:18:52.794Z,999.17
2019-04-16T19:19:52.795Z,999.17
2019-04-16T19:20:53.461Z,999.20
2019-04-16T19:21:53.141Z,999.14
2019-04-16T19:22:52.764Z,999.22
2019-04-16T19:23:52.753Z,999.17
2019-04-16T19:24:52.735Z,999.25
2019-04-16T19:25:55.370Z,999.23
2019-04-16T19:26:52.737Z,999.26
2019-04-16T19:27:52.706Z,999.33
2019-04-16T19:28:52.678Z,999.28
2019-04-16T19:29:52.679Z,999.28
2019-04-16T19:30:52.751Z,999.26
2019-04-16T19:31:56.782Z,999.31
2019-04-16T19:32:52.686Z,999.37
2019-04-16T19:33:52.658Z,999.38
2019-04-16T19:35:07.155Z,999.37
2019-04-16T19:35:53.665Z,999.34
2019-04-16T19:36:52.711Z,999.37
2019-04-16T19:37:52.908Z,999.34
2019-04-16T19:38:52.593Z,999.43
2019-04-16T19:39:52.627Z,999.38
2019-04-16T19:40:52.674Z,999.42
2019-04-16T19:41:56.266Z,999.41
2019-04-16T19:42:54.001Z,999.41
2019-04-16T19:43:52.527Z,999.42
2019-04-16T19:44:52.529Z,999.43
2019-04-16T19:45:52.509Z,999.39
2019-04-16T19:46:54.226Z,999.39
2019-04-16T19:47:52.808Z,999.36
2019-04-16T19:48:52.972Z,999.35
2019-04-16T19:49:52.563Z,999.38
2019-04-16T19:50:52.459Z,999.40
2019-04-16T19:51:52.440Z,999.39
2019-04-16T19:52:53.083Z,999.47
2019-04-16T19:53:52.417Z,999.45
2019-04-16T19:54:52.701Z,999.44
2019-04-16T19:55:52.406Z,999.46
2019-04-16T19:56:52.371Z,999.50
2019-04-16T19:57:56.025Z,999.43
2019-04-16T19:58:52.413Z,999.47
2019-04-16T19:59:52.345Z,999.42
2019-04-16T20:00:53.939Z,999.41
2019-04-16T20:01:55.977Z,999.46
2019-04-16T20:02:53.324Z,999.45
2019-04-16T20:03:52.314Z,999.48
2019-04-16T20:04:52.291Z,999.44
2019-04-16T20:05:52.312Z,999.50
2019-04-16T20:06:52.271Z,999.51
2019-04-16T20:07:52.261Z,999.52
2019-04-16T20:08:52.312Z,999.46
2019-04-16T20:09:52.238Z,999.48
2019-04-16T20:10:52.244Z,999.46
2019-04-16T20:11:54.990Z,999.44
2019-04-16T20:12:52.212Z,999.45
2019-04-16T20:13:52.185Z,999.47
2019-04-16T20:14:52.197Z,999.45
2019-04-16T20:15:52.186Z,999.52
2019-04-16T20:16:52.173Z,999.47
2019-04-16T20:17:52.164Z,999.50
2019-04-16T20:18:52.133Z,999.50
2019-04-16T20:19:52.164Z,999.50
2019-04-16T20:20:52.128Z,999.49
2019-04-16T20:21:52.130Z,999.50
2019-04-16T20:22:52.095Z,999.47
2019-04-16T20:23:52.087Z,999.49
2019-04-16T20:24:52.080Z,999.51
2019-04-16T20:25:52.077Z,999.46
2019-04-16T20:26:52.056Z,999.45
2019-04-16T20:27:52.043Z,999.51
2019-04-16T20:28:52.025Z,999.50
2019-04-16T20:29:52.014Z,999.53
2019-04-16T20:30:57.352Z,999.50
2019-04-16T20:31:53.319Z,999.49
2019-04-16T20:32:51.987Z,999.48
2019-04-16T20:33:51.986Z,999.52
2019-04-16T20:34:51.976Z,999.51
2019-04-16T20:35:51.952Z,999.46
2019-04-16T20:36:52.183Z,999.46
2019-04-16T20:37:54.190Z,999.44
2019-04-16T20:38:51.931Z,999.46
2019-04-16T20:39:51.912Z,999.50
2019-04-16T20:40:51.896Z,999.50
2019-04-16T20:41:53.043Z,999.54
2019-04-16T20:42:51.991Z,999.52
2019-04-16T20:43:51.870Z,999.51
2019-04-16T20:44:51.859Z,999.55
2019-04-16T20:45:51.843Z,999.53
2019-04-16T20:46:51.830Z,999.51
2019-04-16T20:47:51.817Z,999.57
2019-04-16T20:49:06.433Z,999.54
2019-04-16T20:49:52.796Z,999.52
2019-04-16T20:50:53.010Z,999.55
2019-04-16T20:51:51.782Z,999.52
2019-04-16T20:52:51.768Z,999.51
2019-04-16T20:53:51.755Z,999.53
2019-04-16T20:54:51.752Z,999.53
2019-04-16T20:55:51.751Z,999.53
2019-04-16T20:56:53.239Z,999.54
2019-04-16T20:57:51.715Z,999.54
2019-04-16T20:58:51.714Z,999.49
2019-04-16T20:59:51.691Z,999.51
2019-04-16T21:00:51.683Z,999.52
2019-04-16T21:01:51.671Z,999.49
2019-04-16T21:02:51.922Z,999.52
2019-04-16T21:03:51.646Z,999.50
2019-04-16T21:04:51.633Z,999.46
2019-04-16T21:05:58.880Z,999.50
2019-04-16T21:06:52.614Z,999.50
2019-04-16T21:07:51.626Z,999.52
2019-04-16T21:08:56.042Z,999.50
2019-04-16T21:09:52.581Z,999.52
2019-04-16T21:10:51.578Z,999.55
2019-04-16T21:11:52.747Z,999.53
2019-04-16T21:12:54.773Z,999.49
2019-04-16T21:13:51.557Z,999.54
2019-04-16T21:14:54.012Z,999.57
2019-04-16T21:15:51.516Z,999.52
2019-04-16T21:16:51.511Z,999.54
2019-04-16T21:17:51.490Z,999.58
2019-04-16T21:18:51.568Z,999.53
2019-04-16T21:19:51.472Z,999.54
2019-04-16T21:20:51.777Z,999.54
2019-04-16T21:21:55.083Z,999.51
2019-04-16T21:22:51.450Z,999.54
2019-04-16T21:23:51.434Z,999.50
2019-04-16T21:24:51.448Z,999.55
2019-04-16T21:25:51.433Z,999.49
2019-04-16T21:26:51.911Z,999.53
2019-04-16T21:27:51.424Z,999.46
2019-04-16T21:28:51.413Z,999.49
2019-04-16T21:29:51.378Z,999.43
2019-04-16T21:30:51.394Z,999.40
2019-04-16T21:31:51.355Z,999.47
2019-04-16T21:32:51.350Z,999.41
2019-04-16T21:33:52.276Z,999.48
2019-04-16T21:34:51.335Z,999.47
2019-04-16T21:35:51.298Z,999.39
2019-04-16T21:36:51.307Z,999.42
2019-04-16T21:37:51.300Z,999.39
2019-04-16T21:38:51.271Z,999.37
2019-04-16T21:39:52.138Z,999.40
2019-04-16T21:40:52.787Z,999.38
2019-04-16T21:41:51.250Z,999.44
2019-04-16T21:42:51.255Z,999.40
2019-04-16T21:43:51.227Z,999.41
2019-04-16T21:44:51.224Z,999.41
2019-04-16T21:45:51.214Z,999.36
2019-04-16T21:46:52.455Z,999.37
2019-04-16T21:47:54.845Z,999.37
2019-04-16T21:48:51.158Z,999.32
2019-04-16T21:49:51.147Z,999.37
2019-04-16T21:50:54.104Z,999.37
2019-04-16T21:51:53.928Z,999.29
2019-04-16T21:52:55.095Z,999.35
2019-04-16T21:53:52.110Z,999.31
2019-04-16T21:54:51.091Z,999.36
2019-04-16T21:55:51.080Z,999.32
2019-04-16T21:56:54.637Z,999.30
2019-04-16T21:57:51.064Z,999.31
2019-04-16T21:58:51.043Z,999.35
2019-04-16T21:59:56.791Z,999.31
2019-04-16T22:00:52.069Z,999.33
2019-04-16T22:01:51.014Z,999.30
2019-04-16T22:02:51.012Z,999.26
2019-04-16T22:03:50.987Z,999.34
2019-04-16T22:04:50.984Z,999.36
2019-04-16T22:05:50.963Z,999.35
2019-04-16T22:06:52.535Z,999.39
2019-04-16T22:07:53.655Z,999.35
2019-04-16T22:08:51.933Z,999.36
2019-04-16T22:09:50.926Z,999.33
2019-04-16T22:10:50.918Z,999.26
2019-04-16T22:11:50.931Z,999.29
2019-04-16T22:12:50.891Z,999.36
2019-04-16T22:13:51.398Z,999.28
2019-04-16T22:14:53.733Z,999.34
2019-04-16T22:15:53.693Z,999.39
2019-04-16T22:16:51.847Z,999.30
2019-04-16T22:17:50.835Z,999.33
2019-04-16T22:18:50.821Z,999.34
2019-04-16T22:19:54.482Z,999.35
2019-04-16T22:20:51.817Z,999.31
2019-04-16T22:21:50.791Z,999.33
2019-04-16T22:22:50.781Z,999.29
2019-04-16T22:23:51.114Z,999.29
2019-04-16T22:24:51.722Z,999.30
2019-04-16T22:25:50.753Z,999.30
2019-04-16T22:26:50.741Z,999.32
2019-04-16T22:27:50.722Z,999.31
2019-04-16T22:28:50.723Z,999.29
2019-04-16T22:29:50.697Z,999.32
2019-04-16T22:30:51.499Z,999.34
2019-04-16T22:31:52.737Z,999.35
2019-04-16T22:32:51.675Z,999.36
2019-04-16T22:33:50.660Z,999.36
2019-04-16T22:34:50.639Z,999.42
2019-04-16T22:35:50.647Z,999.41
2019-04-16T22:36:50.628Z,999.47
2019-04-16T22:37:50.626Z,999.43
2019-04-16T22:38:50.703Z,999.45
2019-04-16T22:39:51.214Z,999.43
2019-04-16T22:40:51.575Z,999.47
2019-04-16T22:41:50.564Z,999.46
2019-04-16T22:42:50.570Z,999.48
2019-04-16T22:43:50.544Z,999.45
2019-04-16T22:44:50.544Z,999.50
2019-04-16T22:45:52.269Z,999.50
2019-04-16T22:46:50.518Z,999.50
2019-04-16T22:47:50.504Z,999.51
2019-04-16T22:48:50.585Z,999.52
2019-04-16T22:49:51.643Z,999.53
2019-04-16T22:50:50.479Z,999.49
2019-04-16T22:51:50.465Z,999.47
2019-04-16T22:52:50.473Z,999.51
2019-04-16T22:53:50.462Z,999.56
2019-04-16T22:54:52.972Z,999.54
2019-04-16T22:55:50.416Z,999.51
2019-04-16T22:56:50.405Z,999.55
2019-04-16T22:57:50.396Z,999.52
2019-04-16T22:58:50.386Z,999.57
2019-04-16T22:59:50.371Z,999.55
2019-04-16T23:00:50.361Z,999.47
2019-04-16T23:01:53.195Z,999.51
2019-04-16T23:02:50.342Z,999.50
2019-04-16T23:03:53.482Z,999.58
2019-04-16T23:04:50.313Z,999.58
2019-04-16T23:05:50.300Z,999.58
2019-04-16T23:06:50.293Z,999.59
2019-04-16T23:07:50.279Z,999.61
2019-04-16T23:08:50.281Z,999.61
2019-04-16T23:09:50.262Z,999.64
2019-04-16T23:10:51.949Z,999.60
2019-04-16T23:11:52.741Z,999.59
2019-04-16T23:12:51.224Z,999.59
2019-04-16T23:13:50.214Z,999.58
2019-04-16T23:14:50.207Z,999.56
2019-04-16T23:15:50.201Z,999.58
2019-04-16T23:16:50.181Z,999.61
2019-04-16T23:17:50.169Z,999.60
2019-04-16T23:18:50.204Z,999.61
2019-04-16T23:19:51.721Z,999.64
2019-04-16T23:20:50.135Z,999.63
2019-04-16T23:21:50.125Z,999.58
2019-04-16T23:22:50.117Z,999.60
2019-04-16T23:23:51.262Z,999.64
2019-04-16T23:24:51.735Z,999.61
2019-04-16T23:25:51.084Z,999.60
2019-04-16T23:26:50.075Z,999.63
2019-04-16T23:27:50.072Z,999.61
2019-04-16T23:28:50.050Z,999.59
2019-04-16T23:29:50.050Z,999.65
2019-04-16T23:30:51.228Z,999.63
2019-04-16T23:31:55.066Z,999.68
2019-04-16T23:32:51.006Z,999.68
2019-04-16T23:33:49.995Z,999.69
2019-04-16T23:34:49.988Z,999.72
2019-04-16T23:35:49.985Z,999.73
2019-04-16T23:36:49.963Z,999.72
2019-04-16T23:37:49.955Z,999.75
2019-04-16T23:38:49.944Z,999.70
2019-04-16T23:39:49.933Z,999.69
2019-04-16T23:40:49.920Z,999.68
2019-04-16T23:41:49.909Z,999.68
2019-04-16T23:42:50.436Z,999.66
2019-04-16T23:43:50.526Z,999.67
2019-04-16T23:44:49.876Z,999.70
2019-04-16T23:45:49.869Z,999.66
2019-04-16T23:46:49.875Z,999.64
2019-04-16T23:47:49.844Z,999.62
2019-04-16T23:48:49.832Z,999.67
2019-04-16T23:49:49.827Z,999.67
2019-04-16T23:50:49.817Z,999.65
2019-04-16T23:51:49.801Z,999.70
2019-04-16T23:52:49.790Z,999.69
2019-04-16T23:53:49.785Z,999.73
2019-04-16T23:54:49.769Z,999.67
2019-04-16T23:55:50.011Z,999.71
2019-04-16T23:56:52.876Z,999.70
2019-04-16T23:57:49.738Z,999.70
2019-04-16T23:58:49.732Z,999.70
2019-04-16T23:59:49.713Z,999.72
